Decoded Metar for KKLS (KELSO LONGVEIW in WA, USA) (IATA:KLS) | Meteo·Mobile Aviation Weather
aviador You're here:

KKLS Decoded Metar

KELSO LONGVEIW in WA, USA
Report Time2019-01-19 00:56:00
UTC Time2019-01-19 01:47:32
Flight Rules vfr VFR
WindCalm
Visibility9999 m
Phenomena:Rain
Clouds:Broken 037 Hf
Broken 047 Hf
Overcast 065 Hf
Expected CloudBase > 400 ft AGL from Temp-Dew spread
Ceiling3,700 ft
Temp07°C (ISA -8)
Dew Point06°C (93% RH)
AAT6.1°C
QNH1014 hPa
Density Alt-850 ft
Elevation16 ft
Report Wrong Elevation
Raw Report
KKLS 190056Z AUTO 00000KT 9SM RA BKN037 BKN047 OVC065 07/06 A2993
RMK AO2 SLP141 P0007 T00720061=

Extra information for KKLS:More info

Metar Taf Metar & Taf Last 4 Metars F.Rules Stats Wind Profile Meteogram Temp Stats Airport Information Weather charts Add Link Nearby VenuesMetar ALERT Operation Metar Decoded Social comments

AIRNAV info for KKLS